Weather at Douala International Airport

Public forecast

Using degrees Celsius for public forecast. Weather courtesy of forecast.io.

Current aviation weather report (METAR) for Douala International Airport

Retrieved 2021/04/16 17:00 UTC (27 minutes ago):

FKKD 161700Z 00000KT 9999 SCT016 FEW020CB 28/24 Q1006 NOSIG

Aviation forecast (TAF) for Douala International Airport

Retrieved 2021/04/16 12:24 UTC (5 hours ago):

TAF TAF FKKD 161100Z 1612/1718 VRB05KT 8000 BKN013 FEW020CB PROB30 1615/1620 TS BKN016 FEW020CB